LCLKLGMK

Guest
Details From LCLK - Larnaca
To LGMK - Mikonos
Flight Number -
Tags Generated
Created
Modified
Stats Distance 430 nm / 796 km
Max Altitude 0 ft / 0 m
Waypoints 3
Social Downloads 1
Likes 0
Share VATSIM

Download

Looking for another format? Having issues loading an existing format? Contact us
Advertisement - Login to hide

Notes

Generated

Route

LCLK MKN LGMK

ID Type Via Altitude Latitude Longitude Leg Dist Tot Dist Heading (true) Name
O LCLK APT - 0 ft / 0 m 34.86568˚ 33.61326˚ - 0 nm - -
MKN VOR - 0 ft / 0 m 37.44027˚ 25.34449˚ 429 nm 429 nm 293° / 289° MIKONOS VOR-DME
O LGMK APT - 0 ft / 0 m 37.44325˚ 25.34466˚ 0 nm 429 nm 3° / 3° -

Altitude Profile

Advertisement - Login to hide

Weather


0- 5 10 15 20 25 30 35+ Temperature / ° C

Clouds and Precipitation
Forecast for 2018-05-25 06:00 UTC. Updated 41 minutes ago

Ground ~20,000 ft ~40,000 ft Winds

LCLK

Details ICAO LCLK (LCA)
Name Larnaca
Region Cyprus
Timezone Asia/Nicosia (UTC+3.0)
Stats Elevation 8 ft / 2 m (AMSL)
Location 34.875115° 33.624832°
Runways 1
Magnetic Variation 5.029° E

METAR

LCLK 250600Z 19008KT 140V220 9999 FEW012 SCT017 26/19 Q1008 NOSIG

Decode

TAF

TAF LCLK 250530Z 2506/2606 21007KT 9999 FEW020 BECMG 2507/2511 21018KT BECMG 2516/2519 26007KT

Decode

Departure Runways

ID Width Length Bearing (true) Bearing (mag) Surface Threshold Offset Overrun Length
04 148 ft / 45 m 9,771 ft / 2,978 m 45.15° 40.12° Asphalt 0 ft / 0 m 210 ft / 64 m
22 148 ft / 45 m 9,771 ft / 2,978 m 225.17° 220.14° Asphalt 575 ft / 175 m 0 ft / 0 m

LGMK

Details ICAO LGMK (JMK)
Name Mikonos
Region Greece
Timezone Europe/Athens (UTC+3.0)
Stats Elevation 405 ft / 123 m (AMSL)
Location 37.435385° 25.348138°
Runways 1
Magnetic Variation 4.643° E

METAR

LGMK 250550Z 35018KT 9999 FEW020 21/16 Q1008

Decode

TAF

Not found

Destination Runways

ID Width Length Bearing (true) Bearing (mag) Surface Threshold Offset Overrun Length
16 98 ft / 30 m 6,423 ft / 1,958 m 160.63° 155.99° Asphalt 0 ft / 0 m 200 ft / 61 m
34 98 ft / 30 m 6,423 ft / 1,958 m 340.63° 335.99° Asphalt 0 ft / 0 m 200 ft / 61 m

Popular Alternatives